Warnerville, NY (12187)

2:32 PM EDT on August 25, 2016 (GMT -0400)
Cobleskill Richmondville | | Change Station

Elev 965 ft 42.65 °N, 74.53 °W | Updated 8 seconds ago

Overcast
Overcast
79.0 °F
Feels Like 83 °F
N
0.0
Wind Variable Wind from SW
Gusts 0.0 mph

Today
High -- | Low -- °F
--% Chance of Precip.
Yesterday
High -- | Low -- °F
Precip. -- in
Pressure 29.97 in
Visibility 10.0 miles
Clouds Scattered Clouds 4600 ft
Mostly Cloudy 7500 ft
Overcast 16000 ft
Heat Index 83 °F
Dew Point 76 °F
Humidity 91%
Rainfall 0.00 in
Snow Depth Not available.
6:15 AM 7:43 PM
Last Quarter, 43% visible
METAR KALB 251751Z 17010G18KT 10SM SCT046 BKN075 OVC160 26/19 A2997 RMK AO2 RAB24E30 SLP148 P0000 60000 T02610194 10267 20211 58016
Pressure 29.97 in
Visibility 10.0 miles
Clouds Scattered Clouds 4600 ft
Mostly Cloudy 7500 ft
Overcast 16000 ft
Heat Index 83 °F
Dew Point 76 °F
Humidity 91%
Rainfall 0.00 in
Snow Depth Not available.
6:15 AM 7:43 PM
Last Quarter, 43% visible
METAR KALB 251751Z 17010G18KT 10SM SCT046 BKN075 OVC160 26/19 A2997 RMK AO2 RAB24E30 SLP148 P0000 60000 T02610194 10267 20211 58016
A tropical disturbance pushing toward the Bahamas, is expected to develop into a tropical depression or storm, and will likely target Florida and the Gulf Coast this weekend into next week.

Right now, the disturbance remains a broad area of low pressure pushing through the Dominican Republic and Haiti, headed toward the southeast Bahamas. Rainfall totals over 3 inches (with locally higher amounts) are expected in HispaƱiola, particularly over elevated terrain.

10-Day Weather Forecast

Almanac

Astronomy

Aug. 25, 2016 Rise Set
Actual Time
Civil Twilight
Nautical Twilight
Astronomical Twilight
Moon
Length of Visible Light
Length of Day
Tomorrow will be .
, % of the Moon is Illuminated

Today's Extremes

State Highs State Lows

Community

WunderPhotos

Upload Photos

1,934,889 photos uploaded!

WunderBlog® & News

Nearby

Air Quality

  Air Quality AQ Index Pollutant
Not available.

Snow Depth

Station Depth Elevation

Earthquake Activity

City Distance Mag. Time & Date
Minimum magnitude displayed is 2.5.

Coastal Water Temperatures

Place Temperature

Stations

Nearby Weather Stations

Station Location Temp. Windchill Dew Point Humidity Wind Precip. Elev Updated Type
                   

Watches & Warnings

There are currently no watches in effect.